Time;durP1;ratioP1;P1;durP2;ratioP2;P2;SDS_P1;SDS_P2;PMS_P1;PMS_P2;Temp;Humidity;BMP_temperature;BMP_pressure;BME280_temperature;BME280_humidity;BME280_pressure;Samples;Min_cycle;Max_cycle;Signal;HPM_P1;HPM_P2
2021/03/26 00:00:12;;;;;;;17.95;7.40;;;10.50;80.70;;;;;;4995649;28;20065;-76
2021/03/26 00:02:38;;;;;;;20.63;8.40;;;10.50;81.30;;;;;;4978590;28;20058;-76
2021/03/26 00:05:07;;;;;;;21.60;8.32;;;10.50;82.10;;;;;;4994147;28;20552;-75
2021/03/26 00:07:33;;;;;;;16.15;8.30;;;10.40;82.50;;;;;;4994846;28;20038;-76
2021/03/26 00:09:59;;;;;;;16.95;8.98;;;10.40;83.40;;;;;;4995077;28;20088;-76
2021/03/26 00:12:25;;;;;;;15.75;7.97;;;10.40;83.70;;;;;;4978839;28;20499;-76
2021/03/26 00:14:51;;;;;;;22.73;9.43;;;10.40;83.30;;;;;;4977880;28;20061;-76
2021/03/26 00:17:17;;;;;;;19.85;10.45;;;10.40;82.80;;;;;;4977832;28;20491;-76
2021/03/26 00:19:43;;;;;;;30.42;14.65;;;10.40;82.30;;;;;;4977255;28;20038;-76
2021/03/26 00:22:08;;;;;;;19.30;10.98;;;10.40;82.50;;;;;;4978211;28;20141;-76
2021/03/26 00:24:34;;;;;;;25.42;12.93;;;10.50;81.90;;;;;;4995078;28;20064;-76
2021/03/26 00:27:00;;;;;;;25.48;11.13;;;10.50;81.70;;;;;;4995196;28;20042;-76
2021/03/26 00:29:26;;;;;;;25.63;10.02;;;10.60;81.70;;;;;;4993616;28;20364;-76
2021/03/26 00:31:52;;;;;;;19.23;9.80;;;10.50;82.30;;;;;;4995196;28;20082;-76
2021/03/26 00:34:18;;;;;;;18.42;9.57;;;10.50;82.40;;;;;;4993520;28;20491;-75
2021/03/26 00:36:45;;;;;;;25.52;10.18;;;10.40;82.10;;;;;;4995358;28;20046;-75
2021/03/26 00:39:11;;;;;;;20.33;9.32;;;10.40;82.00;;;;;;4997861;28;20039;-76
2021/03/26 00:41:37;;;;;;;28.08;10.10;;;10.40;81.90;;;;;;4998889;28;20046;-75
2021/03/26 00:44:04;;;;;;;15.00;7.50;;;10.40;81.70;;;;;;4999297;28;20109;-75
2021/03/26 00:46:31;;;;;;;16.40;7.00;;;10.30;80.90;;;;;;4999198;28;20500;-76
2021/03/26 00:48:57;;;;;;;15.65;7.03;;;10.30;80.70;;;;;;4997735;28;20035;-75
2021/03/26 00:51:23;;;;;;;18.35;7.63;;;10.30;80.30;;;;;;4999084;28;20484;-76
2021/03/26 00:53:49;;;;;;;12.98;6.25;;;10.30;80.40;;;;;;4997510;28;20070;-74
2021/03/26 00:56:14;;;;;;;13.77;5.82;;;10.30;79.10;;;;;;4997624;28;20049;-75
2021/03/26 00:58:40;;;;;;;12.02;5.47;;;10.30;78.90;;;;;;4997371;28;20038;-75
2021/03/26 01:01:06;;;;;;;14.43;5.07;;;10.30;78.90;;;;;;4998455;28;20045;-75
2021/03/26 01:03:33;;;;;;;9.65;4.90;;;10.30;78.40;;;;;;4997983;28;20419;-76
2021/03/26 01:06:07;;;;;;;12.18;5.97;;;10.30;78.80;;;;;;4997420;28;20042;-76
2021/03/26 01:08:33;;;;;;;17.90;8.80;;;10.30;78.80;;;;;;4980450;28;20057;-76
2021/03/26 01:11:11;;;;;;;17.35;8.73;;;10.30;81.60;;;;;;4997289;28;20132;-76
2021/03/26 01:13:37;;;;;;;13.52;7.55;;;10.20;82.50;;;;;;4997087;28;20034;-76
2021/03/26 01:16:04;;;;;;;19.98;8.77;;;10.10;83.50;;;;;;4997266;28;20049;-76
2021/03/26 01:18:37;;;;;;;17.27;8.10;;;10.10;83.60;;;;;;4998912;28;20049;-76
2021/03/26 01:21:04;;;;;;;17.15;7.95;;;10.00;83.90;;;;;;4980671;28;20495;-76
2021/03/26 01:23:30;;;;;;;15.13;7.43;;;10.00;84.20;;;;;;4996850;28;20513;-76
2021/03/26 01:25:57;;;;;;;17.42;7.50;;;9.90;84.50;;;;;;4998234;28;20113;-75
2021/03/26 01:28:25;;;;;;;11.63;6.97;;;9.90;83.80;;;;;;4998007;28;20030;-76
2021/03/26 01:30:52;;;;;;;14.73;7.65;;;9.90;84.10;;;;;;4997805;28;20034;-76
2021/03/26 01:33:19;;;;;;;18.55;7.20;;;9.80;84.00;;;;;;4996943;28;20038;-76
2021/03/26 01:35:45;;;;;;;15.00;6.40;;;9.80;84.30;;;;;;4998042;28;20041;-76
2021/03/26 01:38:11;;;;;;;10.65;5.85;;;9.60;84.30;;;;;;4998301;28;20545;-76
2021/03/26 01:40:52;;;;;;;13.88;5.68;;;9.70;84.40;;;;;;4998124;28;20054;-76
2021/03/26 01:43:22;;;;;;;9.73;5.32;;;9.70;83.60;;;;;;4998722;28;20430;-75
2021/03/26 01:45:50;;;;;;;10.82;5.35;;;9.80;82.70;;;;;;4998026;28;20034;-76
2021/03/26 01:48:52;;;;;;;10.50;5.40;;;9.80;80.80;;;;;;4998290;28;20099;-76
2021/03/26 01:51:26;;;;;;;12.65;5.45;;;9.80;80.50;;;;;;4997055;28;20072;-76
2021/03/26 01:53:52;;;;;;;9.70;5.47;;;9.90;80.60;;;;;;4996505;28;20078;-76
2021/03/26 01:56:18;;;;;;;10.82;6.57;;;9.90;80.30;;;;;;4997882;28;20467;-76
2021/03/26 01:58:44;;;;;;;10.90;5.60;;;9.90;80.20;;;;;;4996250;28;20042;-76
2021/03/26 02:01:26;;;;;;;15.07;6.10;;;9.90;80.30;;;;;;4997955;28;20042;-76
2021/03/26 02:03:57;;;;;;;12.43;5.93;;;9.90;80.30;;;;;;4998275;28;20038;-76
2021/03/26 02:06:34;;;;;;;16.45;5.80;;;9.80;80.20;;;;;;4980227;28;20038;-76
2021/03/26 02:09:14;;;;;;;16.08;7.15;;;9.80;80.40;;;;;;4998164;28;20092;-76
2021/03/26 02:11:46;;;;;;;11.13;5.72;;;9.80;80.30;;;;;;4996320;28;20046;-76
2021/03/26 02:14:19;;;;;;;14.65;5.97;;;9.80;80.40;;;;;;4998076;28;20049;-76
2021/03/26 02:16:46;;;;;;;14.65;6.78;;;9.80;80.10;;;;;;4996162;28;20046;-76
2021/03/26 02:19:24;;;;;;;12.95;5.88;;;9.80;80.10;;;;;;4997756;28;20033;-76
2021/03/26 02:21:51;;;;;;;11.80;5.80;;;9.80;80.00;;;;;;4996563;28;20053;-76
2021/03/26 02:24:17;;;;;;;13.23;6.15;;;9.70;80.00;;;;;;4995848;28;20081;-75
2021/03/26 02:26:47;;;;;;;11.55;6.35;;;9.70;80.10;;;;;;4997526;28;20037;-76
2021/03/26 02:29:24;;;;;;;14.95;6.05;;;9.70;80.20;;;;;;4995979;28;20041;-76
2021/03/26 02:31:57;;;;;;;17.48;5.95;;;9.60;80.20;;;;;;4995890;28;20049;-75
2021/03/26 02:34:25;;;;;;;14.15;6.63;;;9.60;79.80;;;;;;4996123;28;20050;-75
2021/03/26 02:37:02;;;;;;;10.68;6.22;;;9.60;79.80;;;;;;4996075;28;20093;-76
2021/03/26 02:39:38;;;;;;;12.93;6.93;;;9.60;80.10;;;;;;4995443;28;20034;-76
2021/03/26 02:42:12;;;;;;;13.00;6.32;;;9.60;79.80;;;;;;4997000;28;20133;-75
2021/03/26 02:45:05;;;;;;;13.68;6.63;;;9.60;79.70;;;;;;4997144;28;20030;-75
2021/03/26 02:47:39;;;;;;;15.85;7.28;;;9.60;79.70;;;;;;4995099;28;20038;-75
2021/03/26 02:50:13;;;;;;;14.50;7.13;;;9.60;79.50;;;;;;4995041;28;20121;-75
2021/03/26 02:52:44;;;;;;;13.63;7.47;;;9.60;79.60;;;;;;4996982;28;20073;-75
2021/03/26 02:55:45;;;;;;;13.18;6.97;;;9.60;79.70;;;;;;4995230;28;20104;-75
2021/03/26 02:58:16;;;;;;;13.25;6.95;;;9.60;79.50;;;;;;4953852;28;20487;-76
2021/03/26 03:01:04;;;;;;;13.57;6.75;;;9.60;79.40;;;;;;4994904;28;20040;-76
2021/03/26 03:03:31;;;;;;;13.80;7.05;;;9.60;79.50;;;;;;4995925;28;20046;-76
2021/03/26 03:06:21;;;;;;;12.52;6.55;;;9.70;79.30;;;;;;4994966;28;20035;-76
2021/03/26 03:08:49;;;;;;;18.33;7.80;;;9.60;79.50;;;;;;4995928;28;20093;-76
2021/03/26 03:11:21;;;;;;;14.43;7.35;;;9.60;79.70;;;;;;4978927;28;20049;-76
2021/03/26 03:13:54;;;;;;;14.88;7.95;;;9.70;79.60;;;;;;4995099;28;20042;-76
2021/03/26 03:16:42;;;;;;;15.05;7.22;;;9.70;79.80;;;;;;4996653;28;20034;-76
2021/03/26 03:19:17;;;;;;;19.77;7.43;;;9.70;79.70;;;;;;4995096;28;20039;-76
2021/03/26 03:22:11;;;;;;;16.13;7.65;;;9.70;79.70;;;;;;4996669;28;20073;-76
2021/03/26 03:24:41;;;;;;;16.37;7.70;;;9.70;79.40;;;;;;4994744;28;20034;-76
2021/03/26 03:27:31;;;;;;;15.35;7.03;;;9.70;79.70;;;;;;4996051;28;20041;-76
2021/03/26 03:30:06;;;;;;;15.68;7.07;;;9.60;80.00;;;;;;4994927;28;20125;-76
2021/03/26 03:32:38;;;;;;;18.27;6.53;;;9.60;79.90;;;;;;4995363;28;20048;-76
2021/03/26 03:35:10;;;;;;;13.25;6.30;;;9.70;79.60;;;;;;4994707;28;20088;-76
2021/03/26 03:37:56;;;;;;;14.77;7.00;;;9.70;79.60;;;;;;4994616;28;20042;-76
2021/03/26 03:40:29;;;;;;;16.70;6.03;;;9.70;80.00;;;;;;4994365;28;20499;-76
2021/03/26 03:43:18;;;;;;;12.03;6.13;;;9.70;79.80;;;;;;4995436;28;20038;-76
2021/03/26 03:45:51;;;;;;;12.73;6.13;;;9.70;80.00;;;;;;4978610;28;20045;-76
2021/03/26 03:48:57;;;;;;;12.25;5.93;;;9.60;80.20;;;;;;4996352;28;20117;-76
2021/03/26 03:51:50;;;;;;;14.93;5.63;;;9.60;80.80;;;;;;4995160;28;20559;-75
2021/03/26 03:54:29;;;;;;;14.25;5.68;;;9.50;80.30;;;;;;4978092;28;20495;-74
2021/03/26 03:57:00;;;;;;;13.90;6.10;;;9.50;80.20;;;;;;4994353;28;20073;-75
2021/03/26 03:59:49;;;;;;;13.23;5.40;;;9.50;80.10;;;;;;4978883;28;20035;-75
2021/03/26 04:02:32;;;;;;;14.75;5.78;;;9.50;80.40;;;;;;4994203;28;20041;-75
2021/03/26 04:05:05;;;;;;;14.25;6.20;;;9.50;79.90;;;;;;4996099;28;20042;-75
2021/03/26 04:07:37;;;;;;;11.82;5.32;;;9.50;79.60;;;;;;4993963;28;20069;-76
2021/03/26 04:10:10;;;;;;;15.10;5.45;;;9.60;79.90;;;;;;4994231;28;20117;-76
2021/03/26 04:12:38;;;;;;;24.00;6.47;;;9.50;79.10;;;;;;4995246;28;20475;-76
2021/03/26 04:15:07;;;;;;;12.35;5.22;;;9.50;78.90;;;;;;4977829;28;20034;-76
2021/03/26 04:17:48;;;;;;;12.73;4.68;;;9.50;78.80;;;;;;4994325;28;20096;-76
2021/03/26 04:20:42;;;;;;;12.60;4.70;;;9.50;78.80;;;;;;4993677;28;20137;-75
2021/03/26 04:23:26;;;;;;;11.93;5.43;;;9.50;78.90;;;;;;4978117;28;20038;-75
2021/03/26 04:26:24;;;;;;;10.98;4.45;;;9.50;78.70;;;;;;4993865;28;20058;-75
2021/03/26 04:29:04;;;;;;;11.93;4.38;;;9.50;78.60;;;;;;4977764;28;20125;-75
2021/03/26 04:31:41;;;;;;;9.52;5.32;;;9.50;78.70;;;;;;4993239;28;20487;-75
2021/03/26 04:34:08;;;;;;;10.40;4.50;;;9.50;79.60;;;;;;4977974;28;20048;-76
2021/03/26 04:37:06;;;;;;;15.88;5.25;;;9.40;80.40;;;;;;4995391;28;20033;-76
2021/03/26 04:39:42;;;;;;;10.60;4.90;;;9.40;81.10;;;;;;4995414;28;20054;-76
2021/03/26 04:42:12;;;;;;;9.15;4.25;;;9.50;80.00;;;;;;4977149;28;20129;-76
2021/03/26 04:44:51;;;;;;;11.63;4.45;;;9.50;79.50;;;;;;5010185;28;20125;-75
2021/03/26 04:47:24;;;;;;;14.25;4.85;;;9.50;79.20;;;;;;4977504;28;20034;-76
2021/03/26 04:50:01;;;;;;;8.82;4.35;;;9.60;78.80;;;;;;4977604;28;20117;-76
2021/03/26 04:52:38;;;;;;;9.02;3.92;;;9.60;78.60;;;;;;5009606;28;20133;-75
2021/03/26 04:55:19;;;;;;;13.32;4.88;;;9.60;78.30;;;;;;4976794;28;20044;-75
2021/03/26 04:57:54;;;;;;;11.07;4.45;;;9.70;78.30;;;;;;4977128;28;20038;-76
2021/03/26 05:00:28;;;;;;;;;;;9.60;78.30;;;;;;4995170;28;20054;-76
2021/03/26 05:03:13;;;;;;;9.82;3.42;;;9.70;78.10;;;;;;4994888;28;19916;-76
2021/03/26 05:06:12;;;;;;;8.93;3.67;;;9.70;77.90;;;;;;4994532;28;20034;-76
2021/03/26 05:08:43;;;;;;;15.95;3.83;;;9.70;77.60;;;;;;4988988;28;20042;-76
2021/03/26 05:11:11;;;;;;;7.88;3.35;;;9.70;77.70;;;;;;4976863;28;20121;-76
2021/03/26 05:13:48;;;;;;;8.43;3.22;;;9.70;77.60;;;;;;5009673;28;20034;-77
2021/03/26 05:16:32;;;;;;;8.15;3.67;;;9.60;77.90;;;;;;4995099;28;20042;-76
2021/03/26 05:19:10;;;;;;;20.95;4.28;;;9.70;78.20;;;;;;4994969;28;20034;-77
2021/03/26 05:21:44;;;;;;;10.52;4.25;;;9.70;78.80;;;;;;4994414;28;20046;-77
2021/03/26 05:24:33;;;;;;;9.88;4.13;;;9.70;78.90;;;;;;4977918;28;20038;-75
2021/03/26 05:27:00;;;;;;;9.00;4.40;;;9.70;79.10;;;;;;4998672;28;20043;-77
2021/03/26 05:29:26;;;;;;;10.98;4.53;;;9.70;79.60;;;;;;4999776;28;20057;-76
2021/03/26 05:31:59;;;;;;;10.88;4.35;;;9.70;79.90;;;;;;5016019;28;20132;-76
2021/03/26 05:34:49;;;;;;;13.00;4.40;;;9.70;79.90;;;;;;4999176;28;20054;-76
2021/03/26 05:37:20;;;;;;;8.98;4.10;;;9.80;80.00;;;;;;4998334;28;20050;-77
2021/03/26 05:39:55;;;;;;;12.75;3.50;;;9.80;80.70;;;;;;4997788;28;20065;-77
2021/03/26 05:42:34;;;;;;;12.48;4.80;;;9.90;80.00;;;;;;4997248;28;20133;-76
2021/03/26 05:45:10;;;;;;;10.02;4.22;;;9.90;79.80;;;;;;4997935;28;20038;-75
2021/03/26 05:48:20;;;;;;;12.57;4.40;;;10.00;80.00;;;;;;4997934;28;20566;-75
2021/03/26 05:51:02;;;;;;;7.18;3.90;;;10.00;80.00;;;;;;4975903;28;20133;-75
2021/03/26 05:53:28;;;;;;;8.85;4.18;;;10.00;80.00;;;;;;4975330;28;20043;-76
2021/03/26 05:56:19;;;;;;;12.15;4.18;;;10.00;79.90;;;;;;4989228;28;20383;-76
2021/03/26 05:59:15;;;;;;;8.52;4.22;;;10.00;80.10;;;;;;4997880;28;20054;-77
2021/03/26 06:02:30;;;;;;;13.65;5.07;;;10.00;79.90;;;;;;4997761;28;20129;-76
2021/03/26 06:05:22;;;;;;;13.73;4.82;;;10.10;79.80;;;;;;4997406;28;20041;-76
2021/03/26 06:08:10;;;;;;;12.77;4.82;;;10.10;79.80;;;;;;4997825;28;20165;-77
2021/03/26 06:11:07;;;;;;;11.73;4.47;;;10.10;79.90;;;;;;4997166;28;20117;-77
2021/03/26 06:14:01;;;;;;;13.40;4.20;;;10.00;80.10;;;;;;4980300;28;20037;-77
2021/03/26 06:16:42;;;;;;;9.57;4.80;;;10.00;80.20;;;;;;4980085;28;20038;-77
2021/03/26 06:19:37;;;;;;;12.98;5.25;;;10.00;80.40;;;;;;4979503;28;20038;-76
2021/03/26 06:22:21;;;;;;;15.45;5.10;;;10.00;80.60;;;;;;4997866;28;20529;-78
2021/03/26 06:24:59;;;;;;;15.93;5.00;;;9.90;80.70;;;;;;4996808;28;20116;-76
2021/03/26 06:27:31;;;;;;;15.38;5.03;;;9.90;81.00;;;;;;4997213;28;20050;-76
2021/03/26 06:30:18;;;;;;;11.25;5.00;;;9.90;81.10;;;;;;4997203;28;20505;-76
2021/03/26 06:33:20;;;;;;;26.45;6.45;;;9.90;81.20;;;;;;4996915;28;20034;-76
2021/03/26 06:36:10;;;;;;;14.80;5.97;;;10.00;81.40;;;;;;4996388;28;20095;-77
2021/03/26 06:39:03;;;;;;;19.17;4.95;;;10.00;81.80;;;;;;4979195;28;20030;-78
2021/03/26 06:41:50;;;;;;;15.57;4.30;;;10.00;81.10;;;;;;4976434;28;20054;-78
2021/03/26 06:44:53;;;;;;;25.65;5.47;;;10.10;81.00;;;;;;4975444;28;20093;-77
2021/03/26 06:47:34;;;;;;;18.25;5.50;;;10.10;80.60;;;;;;4970126;28;20054;-77
2021/03/26 06:50:13;;;;;;;14.30;5.47;;;10.20;80.60;;;;;;4957144;28;20062;-77
2021/03/26 06:53:03;;;;;;;19.08;5.22;;;10.20;80.30;;;;;;4976158;28;20078;-76
2021/03/26 06:55:59;;;;;;;10.98;5.32;;;10.30;80.20;;;;;;4975015;28;20042;-77
2021/03/26 06:58:54;;;;;;;15.23;5.70;;;10.50;79.70;;;;;;4980373;28;20081;-76
2021/03/26 07:01:32;;;;;;;23.27;6.25;;;10.60;79.10;;;;;;4996090;28;20116;-76
2021/03/26 07:04:22;;;;;;;10.68;5.40;;;10.70;78.70;;;;;;4996099;28;20070;-77
2021/03/26 07:07:20;;;;;;;14.68;5.32;;;10.80;77.90;;;;;;4995707;28;20066;-77
2021/03/26 07:09:49;;;;;;;18.55;5.50;;;11.00;77.60;;;;;;4987019;28;20042;-76
2021/03/26 07:12:33;;;;;;;13.75;5.28;;;11.10;77.10;;;;;;4995741;28;20046;-75
2021/03/26 07:15:09;;;;;;;12.37;4.90;;;11.20;76.70;;;;;;4994261;28;20475;-77
2021/03/26 07:17:53;;;;;;;15.90;5.32;;;11.30;76.30;;;;;;4996091;28;20092;-77
2021/03/26 07:20:46;;;;;;;14.23;5.53;;;11.40;76.20;;;;;;4994139;28;20453;-77
2021/03/26 07:23:31;;;;;;;16.08;5.47;;;11.60;76.20;;;;;;4994319;28;20391;-76
2021/03/26 07:26:29;;;;;;;12.20;5.63;;;11.70;75.80;;;;;;4995695;28;20038;-76
2021/03/26 07:29:27;;;;;;;13.02;4.82;;;11.80;75.60;;;;;;4994752;28;20053;-76
2021/03/26 07:32:18;;;;;;;9.07;4.55;;;12.00;75.20;;;;;;4995221;28;20042;-76
2021/03/26 07:35:25;;;;;;;19.75;4.68;;;12.30;74.10;;;;;;4993535;28;20042;-78
2021/03/26 07:38:28;;;;;;;8.85;4.38;;;12.30;73.90;;;;;;4963202;28;20051;-77
2021/03/26 07:41:45;;;;;;;11.52;4.75;;;12.40;73.80;;;;;;4976513;28;20519;-77
2021/03/26 07:44:38;;;;;;;10.57;4.57;;;12.40;73.70;;;;;;4985624;28;20038;-77
2021/03/26 07:47:24;;;;;;;11.65;4.28;;;12.60;73.50;;;;;;4994228;28;20038;-78
2021/03/26 07:50:20;;;;;;;6.68;2.08;;;12.80;72.70;;;;;;4994406;28;20053;-77
2021/03/26 07:52:51;;;;;;;6.22;2.20;;;13.10;69.40;;;;;;4975311;28;20391;-78
2021/03/26 07:55:47;;;;;;;8.77;2.08;;;13.10;69.60;;;;;;4993097;28;20528;-77
2021/03/26 07:58:25;;;;;;;2.88;1.25;;;13.30;68.10;;;;;;4994766;28;20042;-77
2021/03/26 08:01:21;;;;;;;3.17;1.60;;;13.40;65.20;;;;;;4994258;28;20052;-77
2021/03/26 08:04:22;;;;;;;6.88;1.90;;;13.30;66.70;;;;;;4993443;28;20034;-76
2021/03/26 08:07:20;;;;;;;5.43;1.80;;;13.10;66.90;;;;;;4994325;28;20530;-77
2021/03/26 08:09:46;;;;;;;8.30;2.55;;;13.00;67.70;;;;;;4994092;28;20038;-77
2021/03/26 08:12:24;;;;;;;4.90;2.00;;;12.90;68.50;;;;;;4992902;28;20532;-77
2021/03/26 08:15:15;;;;;;;6.32;1.70;;;13.00;68.40;;;;;;5009037;28;20038;-77
2021/03/26 08:18:01;;;;;;;5.82;1.70;;;13.10;67.20;;;;;;5008937;28;20077;-77
2021/03/26 08:20:42;;;;;;;5.20;1.70;;;13.20;66.10;;;;;;4964768;28;20133;-76
2021/03/26 08:23:14;;;;;;;6.95;1.65;;;13.30;65.70;;;;;;4988032;28;20047;-78
2021/03/26 08:25:43;;;;;;;6.55;1.90;;;13.50;66.00;;;;;;4974622;28;20034;-78
2021/03/26 08:28:51;;;;;;;8.95;2.63;;;13.60;64.80;;;;;;4974728;28;20085;-78
2021/03/26 08:31:42;;;;;;;6.78;1.67;;;13.50;66.30;;;;;;4921700;28;20052;-77
2021/03/26 08:34:17;;;;;;;3.30;1.60;;;13.40;66.50;;;;;;4974263;28;20117;-77
2021/03/26 08:36:59;;;;;;;6.55;2.20;;;13.50;66.10;;;;;;4974194;28;20046;-77
2021/03/26 08:39:34;;;;;;;10.82;2.15;;;13.60;65.60;;;;;;4990904;28;20070;-77
2021/03/26 08:42:16;;;;;;;5.32;1.80;;;13.60;66.10;;;;;;4992236;28;20065;-75
2021/03/26 08:44:49;;;;;;;7.22;1.98;;;13.60;66.60;;;;;;4992440;28;20030;-75
2021/03/26 08:47:30;;;;;;;6.72;1.90;;;13.80;66.40;;;;;;4976157;28;20160;-75
2021/03/26 08:50:08;;;;;;;4.63;1.80;;;13.80;66.90;;;;;;4994052;28;20116;-76
2021/03/26 08:53:07;;;;;;;6.43;2.20;;;13.70;67.70;;;;;;4994748;28;20049;-75
2021/03/26 08:56:00;;;;;;;4.30;2.08;;;13.60;68.30;;;;;;4971047;28;20038;-75
2021/03/26 08:58:53;;;;;;;8.57;2.17;;;13.40;68.20;;;;;;4992722;28;20065;-75
2021/03/26 09:01:56;;;;;;;9.05;2.85;;;13.30;69.20;;;;;;4998043;28;20500;-76
2021/03/26 09:04:28;;;;;;;5.43;1.90;;;13.40;69.50;;;;;;4998314;28;20064;-76
2021/03/26 09:07:02;;;;;;;6.20;1.95;;;13.50;69.30;;;;;;4980792;28;20114;-78
2021/03/26 09:09:51;;;;;;;7.68;2.40;;;13.50;68.80;;;;;;4997936;28;20065;-77
2021/03/26 09:12:49;;;;;;;4.68;2.00;;;13.40;69.70;;;;;;4998055;28;20042;-79
2021/03/26 09:15:43;;;;;;;7.20;2.65;;;13.40;70.00;;;;;;4996582;28;20047;-77
2021/03/26 09:18:25;;;;;;;9.52;2.55;;;13.60;70.00;;;;;;4997742;28;20035;-78
2021/03/26 09:21:19;;;;;;;6.68;2.33;;;13.50;70.00;;;;;;4997326;28;20042;-76
2021/03/26 09:24:32;;;;;;;6.00;2.10;;;13.70;70.10;;;;;;4996342;28;20062;-77
2021/03/26 09:27:25;;;;;;;6.28;2.33;;;13.90;68.60;;;;;;4917882;29;20509;-78
2021/03/26 09:30:00;;;;;;;8.75;2.35;;;14.00;68.70;;;;;;4996965;28;20464;-77
2021/03/26 09:32:36;;;;;;;3.35;1.70;;;14.20;68.70;;;;;;4997251;28;20507;-78
2021/03/26 09:35:20;;;;;;;5.70;2.63;;;14.60;66.30;;;;;;4997522;28;20034;-78
2021/03/26 09:37:55;;;;;;;9.17;2.17;;;14.80;64.90;;;;;;4996378;28;20038;-77
2021/03/26 09:41:19;;;;;;;10.98;2.90;;;15.00;64.40;;;;;;4997084;28;20320;-79
2021/03/26 09:44:17;;;;;;;4.90;2.50;;;15.20;63.80;;;;;;4995672;28;20042;-79
2021/03/26 09:47:10;;;;;;;7.97;2.60;;;15.20;64.00;;;;;;4995640;28;20038;-79
2021/03/26 09:49:43;;;;;;;5.82;3.05;;;15.30;63.60;;;;;;4996744;28;20038;-79
2021/03/26 09:52:27;;;;;;;7.68;3.50;;;15.50;63.60;;;;;;4996145;28;20053;-77
2021/03/26 09:54:55;;;;;;;6.43;2.95;;;15.70;64.00;;;;;;4996601;28;20043;-79
2021/03/26 09:57:59;;;;;;;10.55;3.50;;;15.80;64.10;;;;;;4997000;28;20045;-78
2021/03/26 10:00:54;;;;;;;8.48;3.00;;;15.70;65.00;;;;;;4996570;28;20161;-78
2021/03/26 10:03:44;;;;;;;7.68;2.95;;;15.60;65.50;;;;;;4995541;28;20046;-78
2021/03/26 10:06:35;;;;;;;8.23;3.13;;;15.60;65.70;;;;;;4979336;28;20144;-78
2021/03/26 10:09:41;;;;;;;9.52;3.15;;;15.50;67.20;;;;;;4994856;28;20054;-76
2021/03/26 10:12:23;;;;;;;10.93;3.95;;;15.60;68.20;;;;;;4994447;28;20137;-79
2021/03/26 10:14:55;;;;;;;12.45;3.28;;;15.70;68.40;;;;;;4996484;28;20042;-78
2021/03/26 10:17:47;;;;;;;22.55;5.75;;;15.90;67.90;;;;;;4994969;28;20035;-79
2021/03/26 10:20:24;;;;;;;10.10;2.97;;;16.10;66.10;;;;;;4995943;28;20042;-78
2021/03/26 10:23:01;;;;;;;14.02;2.55;;;15.90;64.70;;;;;;4996326;28;20125;-78
2021/03/26 10:25:41;;;;;;;6.72;1.40;;;15.80;66.50;;;;;;4996050;28;20364;-80
2021/03/26 10:28:25;;;;;;;7.90;1.92;;;15.90;66.20;;;;;;4996399;28;20042;-79
2021/03/26 10:31:00;;;;;;;10.57;1.88;;;16.20;65.80;;;;;;4978296;28;20042;-79
2021/03/26 10:33:28;;;;;;;11.82;2.13;;;16.40;65.70;;;;;;4996193;28;20097;-78
2021/03/26 10:36:06;;;;;;;7.55;2.20;;;16.50;64.60;;;;;;4996014;28;20154;-79
2021/03/26 10:38:52;;;;;;;11.90;2.30;;;16.50;64.50;;;;;;4996071;28;20042;-78
2021/03/26 10:41:31;;;;;;;8.30;1.92;;;16.50;64.30;;;;;;4995503;28;20115;-78
2021/03/26 10:44:18;;;;;;;4.57;1.15;;;16.60;64.80;;;;;;4978158;28;20387;-78
2021/03/26 10:47:08;;;;;;;10.05;1.63;;;16.60;63.30;;;;;;4995366;28;20049;-78
2021/03/26 10:49:40;;;;;;;11.15;2.28;;;16.50;64.10;;;;;;4954890;28;20099;-77
2021/03/26 10:52:15;;;;;;;7.85;1.88;;;16.30;64.70;;;;;;4977946;28;20050;-78
2021/03/26 10:55:19;;;;;;;7.30;1.52;;;16.20;65.80;;;;;;4995111;28;20096;-78
2021/03/26 10:57:59;;;;;;;7.50;1.83;;;16.30;65.60;;;;;;4915911;29;20221;-78
2021/03/26 11:00:30;;;;;;;10.05;2.85;;;16.40;66.30;;;;;;4915879;29;20044;-78
2021/03/26 11:03:01;;;;;;;10.68;1.75;;;16.40;66.10;;;;;;4963732;28;20407;-78
2021/03/26 11:05:44;;;;;;;7.75;1.75;;;16.40;65.70;;;;;;4995516;28;20054;-78
2021/03/26 11:08:46;;;;;;;6.20;1.55;;;16.50;65.60;;;;;;4995218;28;20084;-78
2021/03/26 11:11:36;;;;;;;11.05;2.15;;;16.70;64.10;;;;;;4981845;28;20046;-78
2021/03/26 11:14:17;;;;;;;6.07;1.50;;;16.70;64.10;;;;;;4995067;28;20070;-78
2021/03/26 11:17:08;;;;;;;8.75;2.38;;;16.70;63.80;;;;;;4994243;28;20073;-78
2021/03/26 11:20:19;;;;;;;8.23;1.50;;;16.60;63.90;;;;;;4994859;28;20503;-78
2021/03/26 11:23:02;;;;;;;9.23;1.67;;;16.40;63.80;;;;;;4980810;28;20042;-76
2021/03/26 11:25:38;;;;;;;8.07;1.40;;;16.40;64.70;;;;;;4995067;28;20042;-75
2021/03/26 11:28:17;;;;;;;6.47;1.05;;;16.70;64.50;;;;;;4995033;28;20050;-78
2021/03/26 11:30:45;;;;;;;7.43;1.55;;;16.80;63.70;;;;;;4976798;28;20061;-76
2021/03/26 11:33:20;;;;;;;5.80;2.00;;;16.80;64.80;;;;;;4994877;28;20038;-77
2021/03/26 11:35:48;;;;;;;5.18;1.20;;;16.50;64.70;;;;;;4994713;28;20121;-77
2021/03/26 11:38:29;;;;;;;6.78;1.17;;;16.40;65.80;;;;;;4994605;28;20192;-77
2021/03/26 11:41:16;;;;;;;5.07;1.38;;;16.10;66.20;;;;;;4994376;28;20132;-76
2021/03/26 11:43:50;;;;;;;2.53;0.85;;;16.30;66.50;;;;;;4993522;28;20451;-76
2021/03/26 11:46:26;;;;;;;7.18;1.15;;;16.40;66.50;;;;;;4995022;28;20121;-79
2021/03/26 11:49:20;;;;;;;3.80;0.93;;;16.40;67.20;;;;;;4993977;28;20041;-76
2021/03/26 11:52:08;;;;;;;6.53;0.82;;;16.60;66.40;;;;;;4998070;28;20046;-78
2021/03/26 11:55:10;;;;;;;6.32;1.00;;;16.60;67.30;;;;;;5011864;28;20046;-77
2021/03/26 11:57:51;;;;;;;6.40;0.90;;;16.80;67.00;;;;;;4994704;28;20038;-77
2021/03/26 12:00:21;;;;;;;6.50;1.20;;;16.70;67.10;;;;;;4976890;28;20038;-77
2021/03/26 12:03:12;;;;;;;4.53;1.20;;;16.70;66.70;;;;;;4994419;28;20145;-77
2021/03/26 12:06:14;;;;;;;6.20;1.30;;;16.60;67.00;;;;;;4995407;28;20034;-79
2021/03/26 12:08:46;;;;;;;4.63;0.90;;;16.60;68.30;;;;;;4993859;28;20751;-77
2021/03/26 12:11:30;;;;;;;8.55;1.10;;;16.80;67.70;;;;;;4988751;28;20042;-77
2021/03/26 12:14:28;;;;;;;9.88;1.55;;;16.90;67.80;;;;;;4993891;28;20100;-77
2021/03/26 12:17:01;;;;;;;8.68;1.08;;;16.90;67.60;;;;;;4994637;28;20129;-77
2021/03/26 12:19:32;;;;;;;9.73;1.48;;;16.70;67.10;;;;;;4992356;28;20523;-75
2021/03/26 12:22:06;;;;;;;3.85;1.02;;;16.20;69.70;;;;;;4993906;28;20042;-80
2021/03/26 12:24:41;;;;;;;5.82;1.23;;;16.20;70.10;;;;;;4994398;28;20125;-77
2021/03/26 12:27:14;;;;;;;8.27;1.20;;;16.50;70.80;;;;;;4994479;28;20046;-77
2021/03/26 12:30:16;;;;;;;6.90;1.23;;;17.10;69.10;;;;;;4993735;28;20038;-76
2021/03/26 12:33:04;;;;;;;8.10;1.05;;;17.70;66.70;;;;;;4976328;28;20065;-77
2021/03/26 12:35:42;;;;;;;6.95;1.02;;;17.70;66.40;;;;;;4993996;28;20153;-77
2021/03/26 12:38:19;;;;;;;7.82;1.00;;;17.70;66.60;;;;;;4993908;28;20043;-76
2021/03/26 12:40:54;;;;;;;3.88;0.90;;;17.70;66.20;;;;;;4993634;28;20108;-75
2021/03/26 12:43:22;;;;;;;6.10;1.15;;;17.40;66.80;;;;;;4993897;28;20034;-75
2021/03/26 12:45:58;;;;;;;5.65;1.08;;;17.10;68.20;;;;;;4993980;28;20144;-75
2021/03/26 12:48:45;;;;;;;5.97;1.25;;;16.80;69.80;;;;;;4976925;28;20039;-75
2021/03/26 12:51:32;;;;;;;7.35;1.40;;;16.90;70.10;;;;;;4993942;28;20121;-75
2021/03/26 12:54:27;;;;;;;11.10;1.92;;;16.70;70.80;;;;;;4992471;28;20105;-75
2021/03/26 12:57:16;;;;;;;14.00;1.50;;;16.70;71.60;;;;;;4992358;28;20422;-76
2021/03/26 12:59:47;;;;;;;6.45;1.20;;;16.70;69.00;;;;;;4989740;28;20046;-75
2021/03/26 13:02:25;;;;;;;11.90;2.10;;;16.60;69.90;;;;;;4991824;28;20096;-75
2021/03/26 13:05:03;;;;;;;8.75;1.35;;;16.70;70.20;;;;;;4993662;28;20035;-75
2021/03/26 13:08:07;;;;;;;9.27;1.23;;;16.60;70.00;;;;;;4991879;28;20038;-75
2021/03/26 13:10:47;;;;;;;16.20;2.03;;;16.70;70.80;;;;;;4985089;28;20050;-74
2021/03/26 13:13:43;;;;;;;12.50;1.90;;;16.60;71.30;;;;;;4993467;28;20042;-75
2021/03/26 13:16:09;;;;;;;10.95;1.50;;;16.60;71.20;;;;;;4993918;28;20049;-76
2021/03/26 13:18:53;;;;;;;9.18;1.50;;;16.70;71.30;;;;;;4992369;28;20392;-75
2021/03/26 13:21:34;;;;;;;9.88;1.45;;;16.70;71.00;;;;;;4970483;28;20042;-75
2021/03/26 13:24:19;;;;;;;12.80;2.38;;;16.60;71.30;;;;;;4994080;28;20038;-75
2021/03/26 13:26:46;;;;;;;19.15;2.90;;;16.50;72.70;;;;;;4993511;28;20049;-75
2021/03/26 13:29:21;;;;;;;17.13;2.58;;;16.50;72.90;;;;;;4992174;28;20470;-74
2021/03/26 13:31:47;;;;;;;13.95;2.03;;;16.40;73.00;;;;;;4993970;28;20042;-73
2021/03/26 13:34:26;;;;;;;13.23;2.35;;;16.50;73.20;;;;;;5008964;28;20128;-75
2021/03/26 13:37:18;;;;;;;9.57;1.88;;;16.60;71.80;;;;;;4977294;28;20104;-74
2021/03/26 13:40:00;;;;;;;13.35;1.73;;;16.50;71.70;;;;;;4975838;28;20046;-75
2021/03/26 13:42:32;;;;;;;11.45;1.52;;;16.40;71.90;;;;;;4994007;28;20046;-75
2021/03/26 13:45:25;;;;;;;8.45;1.90;;;16.50;72.50;;;;;;4993820;28;20089;-76
2021/03/26 13:48:00;;;;;;;11.68;1.70;;;16.50;72.40;;;;;;4990192;28;20130;-75
2021/03/26 13:50:29;;;;;;;11.43;2.25;;;16.40;72.00;;;;;;4994407;28;20546;-74